createdAt,value
2022-10-18T00:01:06.539Z,15.80
2022-10-18T00:03:35.156Z,15.70
2022-10-18T00:06:02.974Z,15.70
2022-10-18T00:08:30.710Z,15.70
2022-10-18T00:10:58.376Z,15.70
2022-10-18T00:13:26.674Z,15.60
2022-10-18T00:16:06.102Z,15.60
2022-10-18T00:18:33.491Z,15.60
2022-10-18T00:21:11.327Z,15.60
2022-10-18T00:23:38.910Z,15.60
2022-10-18T00:26:13.529Z,15.50
2022-10-18T00:28:41.653Z,15.50
2022-10-18T00:31:30.490Z,15.50
2022-10-18T00:34:01.008Z,15.50
2022-10-18T00:36:29.894Z,15.50
2022-10-18T00:38:57.703Z,15.40
2022-10-18T00:41:28.779Z,15.40
2022-10-18T00:44:11.128Z,15.40
2022-10-18T00:46:41.003Z,15.40
2022-10-18T00:49:13.920Z,15.30
2022-10-18T00:51:58.842Z,15.30
2022-10-18T00:54:29.461Z,15.30
2022-10-18T00:56:57.016Z,15.30
2022-10-18T00:59:25.427Z,15.30
2022-10-18T01:01:52.884Z,15.30
2022-10-18T01:04:22.058Z,15.30
2022-10-18T01:07:10.635Z,15.20
2022-10-18T01:10:03.211Z,15.20
2022-10-18T01:13:03.885Z,15.20
2022-10-18T01:15:58.185Z,15.20
2022-10-18T01:18:40.848Z,15.20
2022-10-18T01:21:18.335Z,15.20
2022-10-18T01:24:18.093Z,15.20
2022-10-18T01:27:20.368Z,15.10
2022-10-18T01:30:24.568Z,15.10
2022-10-18T01:32:54.935Z,15.10
2022-10-18T01:35:31.466Z,15.10
2022-10-18T01:38:03.643Z,15.00
2022-10-18T01:40:32.579Z,15.00
2022-10-18T01:43:01.646Z,15.00
2022-10-18T01:45:30.151Z,15.00
2022-10-18T01:47:59.220Z,15.00
2022-10-18T01:50:30.599Z,14.90
2022-10-18T01:52:58.114Z,14.90
2022-10-18T01:55:39.851Z,14.90
2022-10-18T01:58:28.620Z,14.90
2022-10-18T02:01:08.485Z,14.80
2022-10-18T02:03:41.335Z,14.90
2022-10-18T02:06:22.545Z,14.80
2022-10-18T02:09:07.439Z,14.80
2022-10-18T02:11:37.118Z,14.80
2022-10-18T02:14:09.362Z,14.80
2022-10-18T02:16:50.475Z,14.80
2022-10-18T02:19:20.077Z,14.70
2022-10-18T02:21:48.802Z,14.70
2022-10-18T02:24:18.901Z,14.70
2022-10-18T02:26:46.361Z,14.70
2022-10-18T02:29:13.820Z,14.70
2022-10-18T02:31:47.575Z,14.70
2022-10-18T02:34:37.319Z,14.70
2022-10-18T02:37:04.950Z,14.70
2022-10-18T02:39:39.548Z,14.70
2022-10-18T02:42:09.712Z,14.60
2022-10-18T02:44:38.649Z,14.60
2022-10-18T02:47:07.830Z,14.60
2022-10-18T02:49:35.379Z,14.60
2022-10-18T02:52:03.045Z,14.60
2022-10-18T02:54:30.699Z,14.60
2022-10-18T02:56:58.275Z,14.60
2022-10-18T02:59:25.955Z,14.60
2022-10-18T03:01:53.475Z,14.60
2022-10-18T03:04:21.047Z,14.60
2022-10-18T03:06:48.671Z,14.60
2022-10-18T03:09:15.887Z,14.60
2022-10-18T03:11:43.200Z,14.50
2022-10-18T03:14:10.399Z,14.50
2022-10-18T03:16:37.745Z,14.50
2022-10-18T03:19:05.252Z,14.50
2022-10-18T03:21:32.607Z,14.50
2022-10-18T03:24:00.087Z,14.50
2022-10-18T03:26:27.780Z,14.50
2022-10-18T03:28:55.742Z,14.50
2022-10-18T03:31:23.440Z,14.40
2022-10-18T03:33:50.716Z,14.40
2022-10-18T03:36:18.036Z,14.40
2022-10-18T03:38:45.548Z,14.40
2022-10-18T03:41:12.976Z,14.40
2022-10-18T03:43:40.287Z,14.40
2022-10-18T03:46:07.922Z,14.30
2022-10-18T03:48:38.513Z,14.30
2022-10-18T03:51:06.013Z,14.30
2022-10-18T03:53:33.251Z,14.30
2022-10-18T03:56:00.939Z,14.30
2022-10-18T03:58:28.438Z,14.30
2022-10-18T04:00:56.019Z,14.30
2022-10-18T04:03:24.056Z,14.30
2022-10-18T04:05:51.559Z,14.30
2022-10-18T04:08:19.591Z,14.30
2022-10-18T04:10:47.355Z,14.30
2022-10-18T04:13:14.844Z,14.30
2022-10-18T04:15:43.321Z,14.20
2022-10-18T04:18:10.881Z,14.30
2022-10-18T04:20:38.324Z,14.30
2022-10-18T04:23:05.547Z,14.30
2022-10-18T04:25:32.997Z,14.30
2022-10-18T04:28:00.363Z,14.30
2022-10-18T04:30:27.901Z,14.30
2022-10-18T04:32:55.108Z,14.30
2022-10-18T04:35:24.482Z,14.30
2022-10-18T04:37:52.452Z,14.30
2022-10-18T04:40:20.399Z,14.30
2022-10-18T04:42:47.856Z,14.30
2022-10-18T04:45:15.252Z,14.30
2022-10-18T04:47:42.829Z,14.30
2022-10-18T04:50:10.381Z,14.40
2022-10-18T04:52:37.757Z,14.40
2022-10-18T04:55:05.741Z,14.40
2022-10-18T04:57:33.254Z,14.50
2022-10-18T05:00:00.866Z,14.50
2022-10-18T05:02:28.242Z,14.60
2022-10-18T05:04:55.605Z,14.70
2022-10-18T05:07:22.908Z,14.80
2022-10-18T05:09:50.148Z,14.90
2022-10-18T05:12:17.591Z,15.00
2022-10-18T05:14:45.247Z,15.10
2022-10-18T05:17:12.532Z,15.10
2022-10-18T05:19:40.204Z,15.20
2022-10-18T05:22:07.908Z,15.20
2022-10-18T05:24:35.316Z,15.20
2022-10-18T05:27:02.823Z,15.30
2022-10-18T05:29:30.555Z,15.30
2022-10-18T05:31:58.061Z,15.40
2022-10-18T05:34:27.330Z,15.40
2022-10-18T05:36:54.705Z,15.40
2022-10-18T05:39:22.127Z,15.50
2022-10-18T05:41:49.567Z,15.50
2022-10-18T05:44:17.099Z,15.60
2022-10-18T05:46:44.620Z,15.60
2022-10-18T05:49:13.371Z,15.70
2022-10-18T05:51:41.136Z,15.80
2022-10-18T05:54:11.673Z,15.80
2022-10-18T05:59:12.245Z,15.90
2022-10-18T06:01:41.432Z,15.90
2022-10-18T06:04:12.757Z,15.90
2022-10-18T06:06:40.373Z,16.00
2022-10-18T06:09:08.636Z,16.00
2022-10-18T06:11:37.011Z,16.10
2022-10-18T06:14:05.128Z,16.10
2022-10-18T06:16:32.992Z,16.10
2022-10-18T06:19:00.526Z,16.10
2022-10-18T06:21:28.266Z,16.20
2022-10-18T06:23:57.936Z,16.20
2022-10-18T06:26:27.069Z,16.20
2022-10-18T06:28:55.400Z,16.20
2022-10-18T06:31:23.203Z,16.30
2022-10-18T06:33:51.744Z,16.30
2022-10-18T06:36:22.212Z,16.30
2022-10-18T06:38:50.489Z,16.30
2022-10-18T06:41:19.264Z,16.30
2022-10-18T06:43:53.275Z,16.30
2022-10-18T06:46:20.807Z,16.30
2022-10-18T06:48:48.162Z,16.30
2022-10-18T06:51:15.712Z,16.30
2022-10-18T06:53:58.739Z,16.40
2022-10-18T06:56:31.005Z,16.40
2022-10-18T07:01:31.212Z,16.40
2022-10-18T07:03:58.699Z,16.50
2022-10-18T07:06:26.188Z,16.50
2022-10-18T07:08:54.149Z,16.50
2022-10-18T07:11:25.002Z,16.50
2022-10-18T07:13:55.034Z,16.60
2022-10-18T07:16:22.464Z,16.60
2022-10-18T07:18:51.605Z,16.60
2022-10-18T07:21:22.726Z,16.70
2022-10-18T07:23:51.928Z,16.80
2022-10-18T07:26:21.029Z,16.80
2022-10-18T07:28:51.830Z,16.90
2022-10-18T07:31:19.407Z,17.10
2022-10-18T07:33:47.290Z,17.20
2022-10-18T07:36:14.972Z,17.40
2022-10-18T07:38:42.808Z,17.60
2022-10-18T07:41:12.951Z,17.70
2022-10-18T07:43:45.816Z,17.90
2022-10-18T07:46:14.799Z,18.10
2022-10-18T07:48:42.511Z,18.30
2022-10-18T07:51:10.787Z,18.40
2022-10-18T07:53:38.893Z,18.60
2022-10-18T07:56:11.502Z,18.70
2022-10-18T07:58:38.898Z,18.90
2022-10-18T08:01:08.421Z,19.10
2022-10-18T08:03:39.500Z,19.30
2022-10-18T08:06:19.830Z,19.40
2022-10-18T08:08:49.921Z,19.60
2022-10-18T08:11:21.635Z,19.90
2022-10-18T08:13:52.543Z,20.30
2022-10-18T08:16:26.323Z,20.80
2022-10-18T08:18:54.711Z,21.40
2022-10-18T08:21:22.396Z,22.00
2022-10-18T08:23:56.576Z,22.50
2022-10-18T08:26:24.518Z,23.00
2022-10-18T08:28:58.314Z,23.40
2022-10-18T08:31:31.608Z,23.70
2022-10-18T08:34:00.009Z,24.00
2022-10-18T08:36:27.880Z,24.10
2022-10-18T08:38:55.392Z,24.10
2022-10-18T08:41:38.470Z,24.00
2022-10-18T08:44:20.096Z,23.80
2022-10-18T08:46:55.379Z,23.50
2022-10-18T08:49:47.344Z,23.20
2022-10-18T08:52:26.998Z,22.80
2022-10-18T08:55:05.206Z,22.50
2022-10-18T08:57:33.434Z,22.30
2022-10-18T09:00:14.790Z,22.10
2022-10-18T09:03:07.115Z,21.90
2022-10-18T09:05:44.675Z,21.80
2022-10-18T09:08:46.002Z,21.70
2022-10-18T09:11:20.794Z,21.70
2022-10-18T09:14:12.844Z,21.70
2022-10-18T09:17:04.351Z,21.70
2022-10-18T09:20:01.445Z,21.70
2022-10-18T09:22:55.222Z,21.80
2022-10-18T09:25:36.721Z,21.90
2022-10-18T09:28:40.862Z,22.00
2022-10-18T09:31:26.248Z,22.10
2022-10-18T09:34:01.542Z,22.20
2022-10-18T09:36:37.266Z,22.20
2022-10-18T09:39:12.413Z,22.30
2022-10-18T09:41:57.038Z,22.30
2022-10-18T09:44:36.580Z,22.40
2022-10-18T09:47:19.402Z,22.50
2022-10-18T09:49:57.951Z,22.60
2022-10-18T09:52:36.046Z,22.80
2022-10-18T09:55:13.460Z,23.00
2022-10-18T09:57:53.516Z,23.10
2022-10-18T10:00:29.623Z,23.20
2022-10-18T10:02:58.783Z,23.40
2022-10-18T10:05:26.215Z,23.50
2022-10-18T10:07:59.881Z,23.70
2022-10-18T10:10:31.322Z,23.70
2022-10-18T10:13:05.690Z,23.80
2022-10-18T10:15:38.293Z,23.80
2022-10-18T10:18:23.006Z,23.80
2022-10-18T10:20:52.171Z,23.80
2022-10-18T10:23:28.150Z,23.70
2022-10-18T10:26:16.165Z,23.70
2022-10-18T10:28:46.340Z,23.70
2022-10-18T10:31:31.136Z,23.60
2022-10-18T10:34:06.037Z,23.70
2022-10-18T10:36:35.176Z,23.70
2022-10-18T10:39:18.305Z,23.70
2022-10-18T10:41:51.758Z,23.70
2022-10-18T10:44:24.914Z,23.70
2022-10-18T10:46:53.335Z,23.70
2022-10-18T10:49:39.744Z,23.80
2022-10-18T10:52:27.360Z,23.80
2022-10-18T10:55:30.888Z,23.70
2022-10-18T10:57:48.493Z,23.70
2022-10-18T11:00:34.261Z,23.80
2022-10-18T11:03:28.663Z,23.70
2022-10-18T11:06:09.444Z,23.70
2022-10-18T11:08:41.049Z,23.70
2022-10-18T11:11:23.206Z,23.70
2022-10-18T11:14:13.526Z,23.60
2022-10-18T11:16:54.661Z,23.60
2022-10-18T11:19:39.106Z,23.50
2022-10-18T11:22:12.347Z,23.40
2022-10-18T11:24:41.106Z,23.30
2022-10-18T11:27:13.816Z,23.10
2022-10-18T11:29:49.913Z,22.90
2022-10-18T11:32:29.634Z,22.80
2022-10-18T11:35:25.184Z,22.60
2022-10-18T11:38:06.976Z,22.50
2022-10-18T11:40:52.300Z,22.40
2022-10-18T11:43:57.057Z,22.30
2022-10-18T11:46:21.647Z,22.20
2022-10-18T11:49:01.437Z,22.10
2022-10-18T11:52:07.977Z,22.00
2022-10-18T11:55:09.458Z,21.90
2022-10-18T11:58:13.346Z,21.80
2022-10-18T12:01:05.604Z,21.70
2022-10-18T12:03:58.767Z,21.60
2022-10-18T12:06:32.999Z,21.60
2022-10-18T12:09:22.567Z,21.50
2022-10-18T12:12:07.383Z,21.50
2022-10-18T12:14:50.155Z,21.50
2022-10-18T12:17:51.054Z,21.40
2022-10-18T12:20:52.812Z,21.40
2022-10-18T12:23:29.551Z,21.40
2022-10-18T12:26:02.800Z,21.40
2022-10-18T12:28:33.086Z,21.30
2022-10-18T12:31:04.689Z,21.30
2022-10-18T12:33:40.381Z,21.20
2022-10-18T12:36:18.940Z,21.20
2022-10-18T12:39:02.288Z,21.10
2022-10-18T12:41:34.599Z,21.10
2022-10-18T12:44:24.339Z,21.10
2022-10-18T12:46:57.483Z,21.10
2022-10-18T12:49:30.248Z,21.00
2022-10-18T12:52:06.682Z,21.00
2022-10-18T12:54:37.546Z,21.00
2022-10-18T12:57:17.775Z,21.00
2022-10-18T12:59:47.575Z,21.00
2022-10-18T13:02:27.075Z,21.00
2022-10-18T13:04:56.852Z,21.00
2022-10-18T13:07:41.180Z,21.00
2022-10-18T13:10:14.966Z,21.10
2022-10-18T13:12:57.300Z,21.10
2022-10-18T13:15:46.464Z,21.10
2022-10-18T13:18:45.108Z,21.20
2022-10-18T13:21:18.806Z,21.30
2022-10-18T13:24:29.059Z,21.30
2022-10-18T13:27:35.455Z,21.30
2022-10-18T13:30:38.615Z,21.40
2022-10-18T13:33:35.136Z,21.40
2022-10-18T13:36:22.874Z,21.40
2022-10-18T13:38:55.672Z,21.40
2022-10-18T13:44:23.479Z,21.50
2022-10-18T13:46:51.538Z,21.50
2022-10-18T13:49:40.777Z,21.60
2022-10-18T13:52:46.233Z,21.70
2022-10-18T13:55:19.949Z,21.80
2022-10-18T13:58:13.584Z,21.80
2022-10-18T14:00:51.854Z,21.80
2022-10-18T14:03:58.949Z,21.80
2022-10-18T14:06:24.692Z,21.90
2022-10-18T14:08:58.507Z,21.80
2022-10-18T14:11:57.920Z,21.80
2022-10-18T14:14:31.847Z,21.80
2022-10-18T14:17:14.195Z,21.80
2022-10-18T14:20:28.640Z,21.70
2022-10-18T14:23:17.228Z,21.70
2022-10-18T14:25:45.030Z,21.70
2022-10-18T14:28:15.473Z,21.70
2022-10-18T14:30:55.584Z,21.70
2022-10-18T14:33:34.194Z,21.70
2022-10-18T14:36:04.984Z,21.70
2022-10-18T14:38:33.123Z,21.60
2022-10-18T14:41:06.567Z,21.60
2022-10-18T14:43:34.542Z,21.60
2022-10-18T14:46:10.244Z,21.50
2022-10-18T14:48:38.104Z,21.50
2022-10-18T14:51:11.273Z,21.40
2022-10-18T14:53:40.520Z,21.40
2022-10-18T14:56:15.634Z,21.30
2022-10-18T14:58:46.180Z,21.30
2022-10-18T15:01:19.508Z,21.30
2022-10-18T15:03:48.180Z,21.30
2022-10-18T15:06:19.175Z,21.20
2022-10-18T15:08:51.459Z,21.20
2022-10-18T15:11:19.650Z,21.20
2022-10-18T15:13:59.177Z,21.20
2022-10-18T15:16:29.232Z,21.10
2022-10-18T15:19:15.869Z,21.10
2022-10-18T15:22:08.041Z,21.10
2022-10-18T15:24:42.700Z,21.10
2022-10-18T15:27:21.085Z,21.10
2022-10-18T15:29:48.687Z,21.10
2022-10-18T15:32:30.886Z,21.00
2022-10-18T15:35:17.171Z,21.00
2022-10-18T15:37:49.146Z,21.00
2022-10-18T15:40:18.456Z,21.00
2022-10-18T15:42:46.189Z,20.90
2022-10-18T15:45:25.614Z,20.90
2022-10-18T15:48:25.643Z,20.80
2022-10-18T15:51:26.562Z,20.80
2022-10-18T15:53:54.743Z,20.70
2022-10-18T15:56:37.307Z,20.70
2022-10-18T15:59:24.651Z,20.70
2022-10-18T16:01:52.527Z,20.60
2022-10-18T16:04:31.274Z,20.60
2022-10-18T16:06:59.796Z,20.50
2022-10-18T16:09:28.947Z,20.50
2022-10-18T16:11:58.141Z,20.50
2022-10-18T16:14:26.266Z,20.40
2022-10-18T16:17:02.260Z,20.30
2022-10-18T16:19:30.840Z,20.30
2022-10-18T16:22:03.622Z,20.20
2022-10-18T16:24:33.713Z,20.10
2022-10-18T16:27:01.230Z,20.10
2022-10-18T16:29:31.909Z,20.00
2022-10-18T16:31:59.864Z,20.00
2022-10-18T16:34:27.382Z,19.90
2022-10-18T16:36:55.451Z,19.90
2022-10-18T16:39:23.490Z,19.80
2022-10-18T16:41:51.583Z,19.80
2022-10-18T16:44:19.249Z,19.80
2022-10-18T16:46:50.955Z,19.80
2022-10-18T16:49:24.481Z,19.80
2022-10-18T16:51:53.799Z,19.80
2022-10-18T16:54:21.688Z,19.80
2022-10-18T16:56:50.259Z,19.80
2022-10-18T16:59:28.857Z,19.80
2022-10-18T17:01:56.820Z,19.70
2022-10-18T17:04:24.363Z,19.70
2022-10-18T17:06:54.340Z,19.60
2022-10-18T17:09:21.847Z,19.50
2022-10-18T17:11:49.795Z,19.40
2022-10-18T17:14:17.047Z,19.30
2022-10-18T17:16:46.696Z,19.20
2022-10-18T17:19:18.170Z,19.10
2022-10-18T17:21:45.667Z,19.00
2022-10-18T17:24:13.115Z,18.90
2022-10-18T17:26:40.396Z,18.80
2022-10-18T17:29:08.495Z,18.70
2022-10-18T17:31:36.751Z,18.70
2022-10-18T17:34:04.602Z,18.70
2022-10-18T17:36:32.760Z,18.60
2022-10-18T17:39:00.851Z,18.60
2022-10-18T17:41:28.314Z,18.50
2022-10-18T17:43:55.964Z,18.50
2022-10-18T17:46:23.885Z,18.50
2022-10-18T17:48:51.383Z,18.50
2022-10-18T17:51:18.862Z,18.50
2022-10-18T17:53:46.966Z,18.50
2022-10-18T17:56:15.427Z,18.50
2022-10-18T17:58:46.835Z,18.50
2022-10-18T18:01:20.031Z,18.50
2022-10-18T18:03:47.955Z,18.50
2022-10-18T18:06:23.834Z,18.40
2022-10-18T18:08:51.450Z,18.40
2022-10-18T18:11:18.980Z,18.40
2022-10-18T18:13:46.606Z,18.40
2022-10-18T18:16:18.611Z,18.40
2022-10-18T18:18:47.147Z,18.40
2022-10-18T18:21:14.644Z,18.40
2022-10-18T18:23:42.535Z,18.30
2022-10-18T18:26:11.175Z,18.30
2022-10-18T18:28:39.173Z,18.30
2022-10-18T18:31:15.610Z,18.20
2022-10-18T18:33:43.606Z,18.20
2022-10-18T18:36:11.960Z,18.20
2022-10-18T18:38:42.584Z,18.10
2022-10-18T18:41:15.970Z,18.10
2022-10-18T18:43:54.783Z,18.00
2022-10-18T18:46:23.449Z,18.00
2022-10-18T18:48:50.838Z,17.90
2022-10-18T18:51:20.736Z,17.90
2022-10-18T18:53:49.033Z,17.80
2022-10-18T18:58:54.771Z,17.70
2022-10-18T19:01:24.297Z,17.70
2022-10-18T19:03:53.028Z,17.60
2022-10-18T19:06:23.715Z,17.60
2022-10-18T19:09:00.342Z,17.50
2022-10-18T19:11:31.940Z,17.50
2022-10-18T19:14:00.281Z,17.40
2022-10-18T19:16:33.571Z,17.30
2022-10-18T19:19:07.016Z,17.30
2022-10-18T19:21:37.520Z,17.20
2022-10-18T19:24:06.440Z,17.20
2022-10-18T19:26:45.267Z,17.10
2022-10-18T19:29:16.072Z,17.10
2022-10-18T19:31:44.310Z,17.00
2022-10-18T19:34:13.583Z,17.00
2022-10-18T19:36:43.298Z,17.00
2022-10-18T19:39:16.141Z,16.90
2022-10-18T19:41:44.499Z,16.80
2022-10-18T19:44:12.153Z,16.80
2022-10-18T19:46:39.777Z,16.80
2022-10-18T19:49:07.178Z,16.70
2022-10-18T19:51:34.653Z,16.70
2022-10-18T19:54:02.250Z,16.60
2022-10-18T19:56:29.703Z,16.50
2022-10-18T19:58:58.804Z,16.50
2022-10-18T20:01:27.827Z,16.40
2022-10-18T20:03:55.679Z,16.40
2022-10-18T20:06:23.746Z,16.40
2022-10-18T20:08:51.817Z,16.30
2022-10-18T20:11:21.608Z,16.30
2022-10-18T20:13:49.346Z,16.20
2022-10-18T20:16:18.994Z,16.20
2022-10-18T20:18:46.670Z,16.20
2022-10-18T20:21:16.791Z,16.10
2022-10-18T20:23:44.472Z,16.10
2022-10-18T20:26:20.567Z,16.00
2022-10-18T20:28:55.983Z,16.00
2022-10-18T20:31:26.636Z,16.00
2022-10-18T20:33:59.332Z,15.90
2022-10-18T20:36:28.183Z,15.90
2022-10-18T20:38:56.355Z,15.90
2022-10-18T20:41:27.316Z,15.90
2022-10-18T20:44:10.576Z,15.90
2022-10-18T20:46:39.054Z,16.00
2022-10-18T20:49:08.207Z,16.00
2022-10-18T20:51:35.664Z,16.00
2022-10-18T20:56:34.296Z,16.00
2022-10-18T20:59:02.345Z,16.00
2022-10-18T21:01:31.764Z,16.10
2022-10-18T21:04:02.924Z,16.10
2022-10-18T21:06:36.392Z,16.10
2022-10-18T21:09:06.848Z,16.10
2022-10-18T21:11:39.656Z,16.10
2022-10-18T21:14:10.475Z,16.20
2022-10-18T21:16:37.992Z,16.20
2022-10-18T21:19:07.913Z,16.20
2022-10-18T21:21:35.402Z,16.20
2022-10-18T21:24:06.923Z,16.20
2022-10-18T21:26:35.904Z,16.20
2022-10-18T21:29:04.488Z,16.30
2022-10-18T21:31:39.173Z,16.30
2022-10-18T21:34:12.761Z,16.30
2022-10-18T21:36:41.512Z,16.30
2022-10-18T21:39:12.994Z,16.30
2022-10-18T21:41:41.549Z,16.30
2022-10-18T21:44:11.132Z,16.30
2022-10-18T21:46:46.569Z,16.40
2022-10-18T21:49:15.541Z,16.40
2022-10-18T21:51:43.502Z,16.40
2022-10-18T21:54:16.728Z,16.40
2022-10-18T21:56:44.429Z,16.40
2022-10-18T21:59:12.745Z,16.40
2022-10-18T22:01:40.510Z,16.40
2022-10-18T22:04:16.910Z,16.30
2022-10-18T22:06:44.234Z,16.30
2022-10-18T22:09:11.435Z,16.30
2022-10-18T22:11:42.089Z,16.30
2022-10-18T22:14:10.447Z,16.30
2022-10-18T22:16:38.165Z,16.20
2022-10-18T22:19:06.700Z,16.20
2022-10-18T22:21:34.724Z,16.10
2022-10-18T22:24:05.709Z,16.10
2022-10-18T22:26:35.762Z,16.10
2022-10-18T22:29:12.270Z,16.00
2022-10-18T22:31:42.562Z,16.00
2022-10-18T22:34:16.544Z,16.00
2022-10-18T22:36:44.687Z,16.00
2022-10-18T22:39:14.613Z,16.00
2022-10-18T22:41:42.875Z,16.00
2022-10-18T22:44:14.894Z,16.00
2022-10-18T22:46:42.621Z,16.10
2022-10-18T22:49:11.426Z,16.10
2022-10-18T22:51:39.549Z,16.10
2022-10-18T22:54:07.122Z,16.10
2022-10-18T22:56:34.555Z,16.10
2022-10-18T22:59:02.023Z,16.10
2022-10-18T23:01:29.599Z,16.10
2022-10-18T23:03:59.760Z,16.10
2022-10-18T23:06:30.201Z,16.10
2022-10-18T23:08:59.907Z,16.10
2022-10-18T23:11:28.478Z,16.10
2022-10-18T23:13:55.978Z,16.10
2022-10-18T23:16:23.976Z,16.20
2022-10-18T23:18:56.008Z,16.20
2022-10-18T23:21:25.667Z,16.20
2022-10-18T23:23:53.989Z,16.20
2022-10-18T23:26:24.081Z,16.20
2022-10-18T23:28:53.366Z,16.20
2022-10-18T23:31:26.939Z,16.20
2022-10-18T23:33:56.595Z,16.20
2022-10-18T23:36:25.049Z,16.30
2022-10-18T23:38:53.360Z,16.20
2022-10-18T23:41:20.817Z,16.30
2022-10-18T23:43:48.688Z,16.30
2022-10-18T23:46:17.365Z,16.30
2022-10-18T23:48:44.840Z,16.30
2022-10-18T23:51:12.812Z,16.30
2022-10-18T23:53:40.580Z,16.30
2022-10-18T23:56:10.848Z,16.30
2022-10-18T23:58:39.480Z,16.30
